createdAt,value
2023-01-08T00:00:56.451Z,18.38
2023-01-08T00:03:23.488Z,20.45
2023-01-08T00:05:50.586Z,23.52
2023-01-08T00:08:17.388Z,18.40
2023-01-08T00:10:44.012Z,18.02
2023-01-08T00:13:10.765Z,17.90
2023-01-08T00:15:37.411Z,19.65
2023-01-08T00:18:06.634Z,18.13
2023-01-08T00:20:33.791Z,17.05
2023-01-08T00:23:00.634Z,16.45
2023-01-08T00:25:27.455Z,16.35
2023-01-08T00:27:54.219Z,18.38
2023-01-08T00:30:21.132Z,20.27
2023-01-08T00:32:47.975Z,18.65
2023-01-08T00:35:14.627Z,19.25
2023-01-08T00:37:41.358Z,22.35
2023-01-08T00:40:08.327Z,21.45
2023-01-08T00:42:35.379Z,19.92
2023-01-08T00:45:02.409Z,23.08
2023-01-08T00:47:29.080Z,20.73
2023-01-08T00:49:55.874Z,23.00
2023-01-08T00:52:22.541Z,24.33
2023-01-08T00:54:49.222Z,26.98
2023-01-08T00:57:16.021Z,26.65
2023-01-08T00:59:42.715Z,28.38
2023-01-08T01:02:09.593Z,26.48
2023-01-08T01:04:36.989Z,24.90
2023-01-08T01:07:04.077Z,26.90
2023-01-08T01:09:30.766Z,27.70
2023-01-08T01:11:57.795Z,27.17
2023-01-08T01:14:24.628Z,28.55
2023-01-08T01:16:51.421Z,23.13
2023-01-08T01:19:18.142Z,21.23
2023-01-08T01:21:44.756Z,25.50
2023-01-08T01:24:13.200Z,22.75
2023-01-08T01:26:40.827Z,25.55
2023-01-08T01:29:07.699Z,21.42
2023-01-08T01:31:34.567Z,24.40
2023-01-08T01:34:01.323Z,29.88
2023-01-08T01:36:27.962Z,35.85
2023-01-08T01:38:56.068Z,47.30
2023-01-08T01:41:25.615Z,40.58
2023-01-08T01:43:52.812Z,73.75
2023-01-08T01:46:20.042Z,65.40
2023-01-08T01:48:49.352Z,41.60
2023-01-08T01:51:16.263Z,31.63
2023-01-08T01:53:43.166Z,32.83
2023-01-08T01:56:10.158Z,77.97
2023-01-08T01:58:36.932Z,38.10
2023-01-08T02:01:08.222Z,71.30
2023-01-08T02:03:40.438Z,68.53
2023-01-08T02:06:33.660Z,38.40
2023-01-08T02:09:12.369Z,39.33
2023-01-08T02:11:43.136Z,27.55
2023-01-08T02:14:28.972Z,31.85
2023-01-08T02:16:58.743Z,42.83
2023-01-08T02:19:43.080Z,67.15
2023-01-08T02:22:28.700Z,47.47
2023-01-08T02:24:58.500Z,125.80
2023-01-08T02:27:28.053Z,47.58
2023-01-08T02:29:56.151Z,54.08
2023-01-08T02:32:26.822Z,63.22
2023-01-08T02:34:54.120Z,137.80
2023-01-08T02:37:20.985Z,97.82
2023-01-08T02:39:50.683Z,116.85
2023-01-08T02:42:37.803Z,110.63
2023-01-08T02:45:10.724Z,77.75
2023-01-08T02:48:06.928Z,132.27
2023-01-08T02:50:51.692Z,127.22
2023-01-08T02:53:20.569Z,85.25
2023-01-08T02:55:51.343Z,87.10
2023-01-08T02:58:18.533Z,98.03
2023-01-08T03:00:46.743Z,54.30
2023-01-08T03:03:18.542Z,108.15
2023-01-08T03:05:47.314Z,99.32
2023-01-08T03:08:14.116Z,102.38
2023-01-08T03:10:43.251Z,84.72
2023-01-08T03:13:13.397Z,85.10
2023-01-08T03:15:46.395Z,111.90
2023-01-08T03:18:16.100Z,101.13
2023-01-08T03:20:43.821Z,56.83
2023-01-08T03:23:10.898Z,59.15
2023-01-08T03:25:39.851Z,46.38
2023-01-08T03:28:09.520Z,47.90
2023-01-08T03:30:36.929Z,37.20
2023-01-08T03:33:04.639Z,113.22
2023-01-08T03:35:31.994Z,61.65
2023-01-08T03:38:06.011Z,63.22
2023-01-08T03:40:39.226Z,35.88
2023-01-08T03:43:05.819Z,75.05
2023-01-08T03:45:32.925Z,32.95
2023-01-08T03:47:59.929Z,32.08
2023-01-08T03:50:40.183Z,60.05
2023-01-08T03:53:09.860Z,25.00
2023-01-08T03:55:37.130Z,34.60
2023-01-08T03:58:04.186Z,45.30
2023-01-08T04:00:30.885Z,60.92
2023-01-08T04:02:57.627Z,44.30
2023-01-08T04:05:24.224Z,47.53
2023-01-08T04:07:50.874Z,36.50
2023-01-08T04:10:17.490Z,32.95
2023-01-08T04:12:44.069Z,35.75
2023-01-08T04:15:11.050Z,20.83
2023-01-08T04:17:37.733Z,32.13
2023-01-08T04:20:04.646Z,28.33
2023-01-08T04:22:31.554Z,29.75
2023-01-08T04:24:58.321Z,27.85
2023-01-08T04:27:24.938Z,26.58
2023-01-08T04:29:51.606Z,20.55
2023-01-08T04:32:18.480Z,28.52
2023-01-08T04:34:45.202Z,31.27
2023-01-08T04:37:12.035Z,24.10
2023-01-08T04:39:38.867Z,25.35
2023-01-08T04:42:05.556Z,31.42
2023-01-08T04:44:32.142Z,43.05
2023-01-08T04:46:58.759Z,33.05
2023-01-08T04:49:25.365Z,40.28
2023-01-08T04:51:51.993Z,87.00
2023-01-08T04:54:18.614Z,52.28
2023-01-08T04:56:45.251Z,74.80
2023-01-08T04:59:12.126Z,43.88
2023-01-08T05:01:39.024Z,45.30
2023-01-08T05:04:05.811Z,32.97
2023-01-08T05:06:32.916Z,27.27
2023-01-08T05:08:59.688Z,32.10
2023-01-08T05:11:26.450Z,32.45
2023-01-08T05:13:53.561Z,32.33
2023-01-08T05:16:20.377Z,35.88
2023-01-08T05:18:47.382Z,31.02
2023-01-08T05:21:14.283Z,50.83
2023-01-08T05:23:44.223Z,34.70
2023-01-08T05:26:10.832Z,32.72
2023-01-08T05:28:37.440Z,26.85
2023-01-08T05:31:04.126Z,27.85
2023-01-08T05:33:30.819Z,35.72
2023-01-08T05:35:57.446Z,35.50
2023-01-08T05:38:24.142Z,23.45
2023-01-08T05:40:54.123Z,28.67
2023-01-08T05:43:20.740Z,36.30
2023-01-08T05:45:47.547Z,26.80
2023-01-08T05:48:14.275Z,26.33
2023-01-08T05:50:40.963Z,23.08
2023-01-08T05:53:08.692Z,37.45
2023-01-08T05:55:35.592Z,27.95
2023-01-08T05:58:05.575Z,32.10
2023-01-08T06:00:33.110Z,26.70
2023-01-08T06:03:00.221Z,30.05
2023-01-08T06:05:27.142Z,28.63
2023-01-08T06:07:53.752Z,27.67
2023-01-08T06:10:20.395Z,20.58
2023-01-08T06:12:47.074Z,25.42
2023-01-08T06:15:13.743Z,24.45
2023-01-08T06:17:40.487Z,22.48
2023-01-08T06:20:07.711Z,20.63
2023-01-08T06:22:34.793Z,17.45
2023-01-08T06:25:01.665Z,19.13
2023-01-08T06:27:28.279Z,16.67
2023-01-08T06:29:55.301Z,16.88
2023-01-08T06:32:22.398Z,16.92
2023-01-08T06:34:49.262Z,20.90
2023-01-08T06:37:15.856Z,22.50
2023-01-08T06:39:42.498Z,22.65
2023-01-08T06:42:09.249Z,20.05
2023-01-08T06:44:36.188Z,21.55
2023-01-08T06:47:02.918Z,18.73
2023-01-08T06:49:29.511Z,17.92
2023-01-08T06:51:57.228Z,19.30
2023-01-08T06:54:23.981Z,21.98
2023-01-08T06:56:54.069Z,34.25
2023-01-08T06:59:22.018Z,35.45
2023-01-08T07:01:49.094Z,34.88
2023-01-08T07:04:15.857Z,42.28
2023-01-08T07:06:42.719Z,32.15
2023-01-08T07:09:12.212Z,24.33
2023-01-08T07:11:39.155Z,22.73
2023-01-08T07:14:05.981Z,30.00
2023-01-08T07:16:32.869Z,23.83
2023-01-08T07:18:59.488Z,26.98
2023-01-08T07:21:26.116Z,28.52
2023-01-08T07:23:52.737Z,22.35
2023-01-08T07:26:19.394Z,24.85
2023-01-08T07:28:46.019Z,26.23
2023-01-08T07:31:12.786Z,27.55
2023-01-08T07:33:39.588Z,27.17
2023-01-08T07:36:06.779Z,28.17
2023-01-08T07:38:33.707Z,25.77
2023-01-08T07:41:00.593Z,26.38
2023-01-08T07:43:30.025Z,27.48
2023-01-08T07:45:57.727Z,27.35
2023-01-08T07:48:24.352Z,28.15
2023-01-08T07:50:51.079Z,27.63
2023-01-08T07:53:17.985Z,28.67
2023-01-08T07:55:44.754Z,25.08
2023-01-08T07:58:13.581Z,23.60
2023-01-08T08:00:40.553Z,22.92
2023-01-08T08:03:08.157Z,24.67
2023-01-08T08:05:34.963Z,26.52
2023-01-08T08:08:01.673Z,27.73
2023-01-08T08:10:28.420Z,26.15
2023-01-08T08:12:55.199Z,25.33
2023-01-08T08:15:21.955Z,26.65
2023-01-08T08:17:48.965Z,26.15
2023-01-08T08:20:16.061Z,24.45
2023-01-08T08:22:42.690Z,26.02
2023-01-08T08:25:09.675Z,24.90
2023-01-08T08:27:36.685Z,24.63
2023-01-08T08:30:04.113Z,25.25
2023-01-08T08:32:30.972Z,25.17
2023-01-08T08:34:57.718Z,24.80
2023-01-08T08:37:24.350Z,26.20
2023-01-08T08:39:51.115Z,26.40
2023-01-08T08:42:18.088Z,24.88
2023-01-08T08:44:45.015Z,25.38
2023-01-08T08:47:11.820Z,25.10
2023-01-08T08:49:38.526Z,23.95
2023-01-08T08:52:05.399Z,23.83
2023-01-08T08:54:32.037Z,24.15
2023-01-08T08:56:58.727Z,26.50
2023-01-08T08:59:25.374Z,26.95
2023-01-08T09:01:52.110Z,42.97
2023-01-08T09:04:18.818Z,36.47
2023-01-08T09:06:45.448Z,61.47
2023-01-08T09:09:12.253Z,46.08
2023-01-08T09:11:38.848Z,32.15
2023-01-08T09:14:05.892Z,28.33
2023-01-08T09:16:33.332Z,28.83
2023-01-08T09:19:00.206Z,30.30
2023-01-08T09:21:26.820Z,26.88
2023-01-08T09:23:53.633Z,28.58
2023-01-08T09:26:20.864Z,25.98
2023-01-08T09:28:47.621Z,35.22
2023-01-08T09:31:14.459Z,36.70
2023-01-08T09:33:41.165Z,31.63
2023-01-08T09:36:14.190Z,28.75
2023-01-08T09:38:41.109Z,26.00
2023-01-08T09:41:09.989Z,25.70
2023-01-08T09:43:43.665Z,25.98
2023-01-08T09:46:12.325Z,25.15
2023-01-08T09:48:40.363Z,25.60
2023-01-08T09:51:10.251Z,24.88
2023-01-08T09:53:37.017Z,22.40
2023-01-08T09:56:10.303Z,25.15
2023-01-08T09:58:45.406Z,24.25
2023-01-08T10:01:16.836Z,22.83
2023-01-08T10:03:45.279Z,24.38
2023-01-08T10:06:14.091Z,23.73
2023-01-08T10:08:41.109Z,24.20
2023-01-08T10:11:09.177Z,23.85
2023-01-08T10:13:38.334Z,25.00
2023-01-08T10:16:09.707Z,24.02
2023-01-08T10:18:37.117Z,24.50
2023-01-08T10:21:04.215Z,25.08
2023-01-08T10:23:31.048Z,25.60
2023-01-08T10:25:58.901Z,27.73
2023-01-08T10:28:25.731Z,23.52
2023-01-08T10:30:53.459Z,23.65
2023-01-08T10:33:23.526Z,23.58
2023-01-08T10:36:03.812Z,22.98
2023-01-08T10:38:35.821Z,26.05
2023-01-08T10:41:05.159Z,24.35
2023-01-08T10:43:36.908Z,40.80
2023-01-08T10:46:08.852Z,34.25
2023-01-08T10:48:37.914Z,27.88
2023-01-08T10:51:07.039Z,26.77
2023-01-08T10:53:34.638Z,28.00
2023-01-08T10:56:02.603Z,26.55
2023-01-08T10:58:32.558Z,23.77
2023-01-08T11:01:15.828Z,24.65
2023-01-08T11:03:42.872Z,24.63
2023-01-08T11:06:10.506Z,24.30
2023-01-08T11:08:37.161Z,24.90
2023-01-08T11:11:04.193Z,23.35
2023-01-08T11:13:31.336Z,24.52
2023-01-08T11:16:06.166Z,21.33
2023-01-08T11:18:36.916Z,22.13
2023-01-08T11:21:08.285Z,22.27
2023-01-08T11:23:34.936Z,21.67
2023-01-08T11:26:15.773Z,21.83
2023-01-08T11:28:56.119Z,19.33
2023-01-08T11:31:33.307Z,23.83
2023-01-08T11:34:05.816Z,21.27
2023-01-08T11:36:34.596Z,22.98
2023-01-08T11:39:02.326Z,18.27
2023-01-08T11:41:28.987Z,17.35
2023-01-08T11:44:16.926Z,20.00
2023-01-08T11:47:08.955Z,19.08
2023-01-08T11:49:54.477Z,19.13
2023-01-08T11:52:53.463Z,19.23
2023-01-08T11:55:38.743Z,15.10
2023-01-08T11:58:23.204Z,18.35
2023-01-08T12:01:05.303Z,14.68
2023-01-08T12:03:34.405Z,17.85
2023-01-08T12:06:19.815Z,15.45
2023-01-08T12:08:58.545Z,14.80
2023-01-08T12:11:26.593Z,17.70
2023-01-08T12:14:12.133Z,16.08
2023-01-08T12:16:57.783Z,15.70
2023-01-08T12:19:50.845Z,15.00
2023-01-08T12:22:32.266Z,14.45
2023-01-08T12:25:17.951Z,13.65
2023-01-08T12:27:58.989Z,12.45
2023-01-08T12:30:34.968Z,15.32
2023-01-08T12:33:14.821Z,12.93
2023-01-08T12:35:53.297Z,13.95
2023-01-08T12:38:32.757Z,13.38
2023-01-08T12:41:04.016Z,13.02
2023-01-08T12:43:32.812Z,13.38
2023-01-08T12:46:00.647Z,12.88
2023-01-08T12:48:28.691Z,15.93
2023-01-08T12:51:07.457Z,16.63
2023-01-08T12:53:52.689Z,18.23
2023-01-08T12:56:40.574Z,17.33
2023-01-08T12:59:14.858Z,19.13
2023-01-08T13:01:51.104Z,17.48
2023-01-08T13:04:18.697Z,21.52
2023-01-08T13:06:57.295Z,17.05
2023-01-08T13:09:25.399Z,17.83
2023-01-08T13:11:53.259Z,18.45
2023-01-08T13:14:20.474Z,19.58
2023-01-08T13:16:47.471Z,22.10
2023-01-08T13:19:25.150Z,29.23
2023-01-08T13:21:53.694Z,20.02
2023-01-08T13:24:29.825Z,19.02
2023-01-08T13:26:57.037Z,19.00
2023-01-08T13:29:26.405Z,18.88
2023-01-08T13:31:53.306Z,19.02
2023-01-08T13:34:22.189Z,17.30
2023-01-08T13:36:56.340Z,19.33
2023-01-08T13:39:24.309Z,18.90
2023-01-08T13:41:58.408Z,16.58
2023-01-08T13:44:48.149Z,19.48
2023-01-08T13:47:34.806Z,17.77
2023-01-08T13:50:04.300Z,14.30
2023-01-08T13:52:31.150Z,15.77
2023-01-08T13:54:58.079Z,15.82
2023-01-08T13:57:24.733Z,16.02
2023-01-08T14:00:00.207Z,14.50
2023-01-08T14:02:41.374Z,15.85
2023-01-08T14:05:27.789Z,14.25
2023-01-08T14:07:54.996Z,13.05
2023-01-08T14:10:21.795Z,12.82
2023-01-08T14:12:49.051Z,13.05
2023-01-08T14:15:26.447Z,12.20
2023-01-08T14:17:53.299Z,13.77
2023-01-08T14:20:22.784Z,13.88
2023-01-08T14:22:49.494Z,14.98
2023-01-08T14:25:18.102Z,12.88
2023-01-08T14:27:54.438Z,12.18
2023-01-08T14:30:22.031Z,14.07
2023-01-08T14:32:49.234Z,12.45
2023-01-08T14:35:18.249Z,12.70
2023-01-08T14:37:44.990Z,13.50
2023-01-08T14:40:15.602Z,14.50
2023-01-08T14:42:44.391Z,14.10
2023-01-08T14:45:16.939Z,12.85
2023-01-08T14:47:49.323Z,13.70
2023-01-08T14:50:18.719Z,12.10
2023-01-08T14:52:45.457Z,12.10
2023-01-08T14:55:14.604Z,12.90
2023-01-08T14:57:46.823Z,11.13
2023-01-08T15:00:18.158Z,13.45
2023-01-08T15:02:45.996Z,11.30
2023-01-08T15:05:20.654Z,12.75
2023-01-08T15:07:59.010Z,10.20
2023-01-08T15:10:31.798Z,11.45
2023-01-08T15:13:01.019Z,9.98
2023-01-08T15:15:28.005Z,12.65
2023-01-08T15:17:54.742Z,13.25
2023-01-08T15:20:22.727Z,11.80
2023-01-08T15:22:49.900Z,12.80
2023-01-08T15:25:20.594Z,12.35
2023-01-08T15:27:54.178Z,15.70
2023-01-08T15:30:29.397Z,12.32
2023-01-08T15:33:05.685Z,11.75
2023-01-08T15:35:32.308Z,13.27
2023-01-08T15:37:58.989Z,11.55
2023-01-08T15:40:25.631Z,12.18
2023-01-08T15:43:11.414Z,10.45
2023-01-08T15:45:42.006Z,9.95
2023-01-08T15:48:09.319Z,11.40
2023-01-08T15:50:38.761Z,14.38
2023-01-08T15:53:07.470Z,11.48
2023-01-08T15:55:34.203Z,13.68
2023-01-08T15:58:00.964Z,12.77
2023-01-08T16:00:27.771Z,11.18
2023-01-08T16:02:55.143Z,12.95
2023-01-08T16:05:22.845Z,12.35
2023-01-08T16:07:49.591Z,16.38
2023-01-08T16:10:16.856Z,14.98
2023-01-08T16:12:43.690Z,13.43
2023-01-08T16:15:10.883Z,13.10
2023-01-08T16:17:38.077Z,15.35
2023-01-08T16:20:05.449Z,12.50
2023-01-08T16:22:34.767Z,16.45
2023-01-08T16:25:01.524Z,14.77
2023-01-08T16:27:28.311Z,15.55
2023-01-08T16:29:55.042Z,16.25
2023-01-08T16:32:27.636Z,13.52
2023-01-08T16:34:57.936Z,17.10
2023-01-08T16:37:24.760Z,16.42
2023-01-08T16:39:51.473Z,16.55
2023-01-08T16:42:18.142Z,13.23
2023-01-08T16:44:45.182Z,14.38
2023-01-08T16:47:11.825Z,19.92
2023-01-08T16:49:40.398Z,13.15
2023-01-08T16:52:09.624Z,18.30
2023-01-08T16:54:39.233Z,16.98
2023-01-08T16:57:05.888Z,16.20
2023-01-08T16:59:33.204Z,17.60
2023-01-08T17:02:00.676Z,13.88
2023-01-08T17:04:28.997Z,15.57
2023-01-08T17:06:55.604Z,17.05
2023-01-08T17:09:22.249Z,14.88
2023-01-08T17:11:48.967Z,15.80
2023-01-08T17:14:15.807Z,14.45
2023-01-08T17:16:45.221Z,15.88
2023-01-08T17:19:12.680Z,15.52
2023-01-08T17:21:39.894Z,17.13
2023-01-08T17:24:06.990Z,14.40
2023-01-08T17:26:33.903Z,15.90
2023-01-08T17:29:00.929Z,13.02
2023-01-08T17:31:27.684Z,12.60
2023-01-08T17:33:54.647Z,15.80
2023-01-08T17:36:25.651Z,15.43
2023-01-08T17:38:53.729Z,18.67
2023-01-08T17:41:39.683Z,17.92
2023-01-08T17:44:07.003Z,14.75
2023-01-08T17:46:37.811Z,14.35
2023-01-08T17:49:04.895Z,15.07
2023-01-08T17:51:33.429Z,14.18
2023-01-08T17:54:00.420Z,17.17
2023-01-08T17:56:27.397Z,14.60
2023-01-08T17:58:54.204Z,17.20
2023-01-08T18:01:21.108Z,14.40
2023-01-08T18:03:47.883Z,14.85
2023-01-08T18:06:14.529Z,14.93
2023-01-08T18:08:41.571Z,13.20
2023-01-08T18:11:09.022Z,14.43
2023-01-08T18:13:36.098Z,15.18
2023-01-08T18:16:03.787Z,17.13
2023-01-08T18:18:33.394Z,18.10
2023-01-08T18:21:00.106Z,15.07
2023-01-08T18:23:27.133Z,17.15
2023-01-08T18:25:53.806Z,19.20
2023-01-08T18:28:20.553Z,16.70
2023-01-08T18:30:47.220Z,14.88
2023-01-08T18:33:16.768Z,16.20
2023-01-08T18:35:43.472Z,15.00
2023-01-08T18:38:15.517Z,15.38
2023-01-08T18:40:45.360Z,16.75
2023-01-08T18:43:12.224Z,18.40
2023-01-08T18:45:39.557Z,15.88
2023-01-08T18:48:06.869Z,18.00
2023-01-08T18:50:33.564Z,15.65
2023-01-08T18:53:00.217Z,17.08
2023-01-08T18:55:26.941Z,18.55
2023-01-08T18:57:53.671Z,19.23
2023-01-08T19:00:20.949Z,18.50
2023-01-08T19:02:47.800Z,15.85
2023-01-08T19:05:14.627Z,20.58
2023-01-08T19:07:42.273Z,26.75
2023-01-08T19:10:13.336Z,25.13
2023-01-08T19:12:40.056Z,26.98
2023-01-08T19:15:07.088Z,22.80
2023-01-08T19:17:33.751Z,21.17
2023-01-08T19:20:00.396Z,19.42
2023-01-08T19:22:27.528Z,18.95
2023-01-08T19:24:54.672Z,17.52
2023-01-08T19:27:21.550Z,17.25
2023-01-08T19:29:48.319Z,16.02
2023-01-08T19:32:15.141Z,19.60
2023-01-08T19:34:41.830Z,18.48
2023-01-08T19:37:08.598Z,18.33
2023-01-08T19:39:35.354Z,17.98
2023-01-08T19:42:20.818Z,17.90
2023-01-08T19:44:47.543Z,17.08
2023-01-08T19:47:14.285Z,17.40
2023-01-08T19:49:46.552Z,14.95
2023-01-08T19:52:14.479Z,14.13
2023-01-08T19:54:41.695Z,10.27
2023-01-08T19:57:08.466Z,16.33
2023-01-08T19:59:35.093Z,16.40
2023-01-08T20:02:01.850Z,18.02
2023-01-08T20:04:30.434Z,13.93
2023-01-08T20:06:58.249Z,14.55
2023-01-08T20:09:24.864Z,14.60
2023-01-08T20:11:51.584Z,13.18
2023-01-08T20:14:20.720Z,14.43
2023-01-08T20:16:47.684Z,15.57
2023-01-08T20:19:14.480Z,16.33
2023-01-08T20:21:41.162Z,16.77
2023-01-08T20:24:12.860Z,15.82
2023-01-08T20:26:40.445Z,13.93
2023-01-08T20:29:08.167Z,13.95
2023-01-08T20:31:35.514Z,15.13
2023-01-08T20:34:03.573Z,14.10
2023-01-08T20:36:31.616Z,12.55
2023-01-08T20:38:59.660Z,12.85
2023-01-08T20:41:27.344Z,12.60
2023-01-08T20:43:56.181Z,11.80
2023-01-08T20:46:28.110Z,11.10
2023-01-08T20:48:56.187Z,12.95
2023-01-08T20:51:22.842Z,12.55
2023-01-08T20:53:49.541Z,11.02
2023-01-08T20:56:16.210Z,10.30
2023-01-08T20:58:44.978Z,10.40
2023-01-08T21:01:12.379Z,9.43
2023-01-08T21:03:39.528Z,13.80
2023-01-08T21:06:06.981Z,15.95
2023-01-08T21:08:35.937Z,21.83
2023-01-08T21:11:03.855Z,19.20
2023-01-08T21:13:30.924Z,14.05
2023-01-08T21:15:59.293Z,13.80
2023-01-08T21:18:27.112Z,14.27
2023-01-08T21:21:04.570Z,18.15
2023-01-08T21:23:31.751Z,14.52
2023-01-08T21:25:59.075Z,10.90
2023-01-08T21:28:26.037Z,16.13
2023-01-08T21:30:52.936Z,11.25
2023-01-08T21:33:20.403Z,12.65
2023-01-08T21:35:47.786Z,11.52
2023-01-08T21:38:14.797Z,12.50
2023-01-08T21:40:41.487Z,14.05
2023-01-08T21:43:28.749Z,14.73
2023-01-08T21:45:57.613Z,12.77
2023-01-08T21:48:24.401Z,12.98
2023-01-08T21:50:51.241Z,13.52
2023-01-08T21:53:35.410Z,14.07
2023-01-08T21:56:03.447Z,16.85
2023-01-08T21:58:31.559Z,15.25
2023-01-08T22:00:58.517Z,14.40
2023-01-08T22:03:25.116Z,13.65
2023-01-08T22:06:02.373Z,12.15
2023-01-08T22:08:31.155Z,12.65
2023-01-08T22:10:58.316Z,15.00
2023-01-08T22:13:25.001Z,14.10
2023-01-08T22:16:00.195Z,14.52
2023-01-08T22:18:26.754Z,13.07
2023-01-08T22:21:07.345Z,15.52
2023-01-08T22:23:34.340Z,17.42
2023-01-08T22:26:07.801Z,14.43
2023-01-08T22:28:34.817Z,13.60
2023-01-08T22:31:05.101Z,13.70
2023-01-08T22:33:31.973Z,16.13
2023-01-08T22:35:58.628Z,15.32
2023-01-08T22:38:25.254Z,14.02
2023-01-08T22:40:52.064Z,17.00
2023-01-08T22:43:19.023Z,12.93
2023-01-08T22:45:51.652Z,14.02
2023-01-08T22:48:18.295Z,16.77
2023-01-08T22:50:45.099Z,15.10
2023-01-08T22:53:12.007Z,14.30
2023-01-08T22:55:49.415Z,15.60
2023-01-08T22:58:16.886Z,14.57
2023-01-08T23:00:44.079Z,15.20
2023-01-08T23:03:10.722Z,15.05
2023-01-08T23:05:37.394Z,15.85
2023-01-08T23:08:04.119Z,16.65
2023-01-08T23:10:31.158Z,15.57
2023-01-08T23:12:57.813Z,13.85
2023-01-08T23:15:24.586Z,10.57
2023-01-08T23:17:52.650Z,8.43
2023-01-08T23:20:20.196Z,4.75
2023-01-08T23:22:47.247Z,4.50
2023-01-08T23:25:14.247Z,3.15
2023-01-08T23:27:40.874Z,4.47
2023-01-08T23:30:07.791Z,3.05
2023-01-08T23:32:34.539Z,2.60
2023-01-08T23:35:01.220Z,2.20
2023-01-08T23:37:28.549Z,3.38
2023-01-08T23:39:58.815Z,4.18
2023-01-08T23:42:25.525Z,2.65
2023-01-08T23:44:52.159Z,2.92
2023-01-08T23:47:18.763Z,3.97
2023-01-08T23:49:45.362Z,3.65
2023-01-08T23:52:12.024Z,2.33
2023-01-08T23:54:38.669Z,2.78
2023-01-08T23:57:08.127Z,4.18
2023-01-08T23:59:34.745Z,6.70
